Time;durP1;ratioP1;P1;durP2;ratioP2;P2;SDS_P1;SDS_P2;PMS_P1;PMS_P2;Temp;Humidity;BMP_temperature;BMP_pressure;BME280_temperature;BME280_humidity;BME280_pressure;Samples;Min_cycle;Max_cycle;Signal;HPM_P1;HPM_P2
2022/12/20 00:01:19;;;;;;;5.72;2.90;;;;;;;;;;5010795;28;20247;-73
2022/12/20 00:03:44;;;;;;;4.63;2.47;;;;;;;;;;5012277;28;20243;-73
2022/12/20 00:06:10;;;;;;;6.65;2.78;;;;;;;;;;5011678;28;20465;-72
2022/12/20 00:08:35;;;;;;;5.35;2.28;;;;;;;;;;5011998;28;20216;-73
2022/12/20 00:11:01;;;;;;;5.15;2.47;;;;;;;;;;5011883;28;20213;-72
2022/12/20 00:13:27;;;;;;;4.72;2.50;;;;;;;;;;5012002;28;20212;-73
2022/12/20 00:16:03;;;;;;;5.38;2.60;;;;;;;;;;5004063;28;20236;-73
2022/12/20 00:18:28;;;;;;;8.13;2.60;;;;;;;;;;4992247;28;20743;-73
2022/12/20 00:20:57;;;;;;;6.43;2.75;;;;;;;;;;4992020;28;20205;-73
2022/12/20 00:23:22;;;;;;;5.45;2.55;;;;;;;;;;4995036;28;20295;-73
2022/12/20 00:25:47;;;;;;;5.97;2.35;;;;;;;;;;4996607;28;20594;-73
2022/12/20 00:28:13;;;;;;;5.47;2.42;;;;;;;;;;4995082;28;20232;-73
2022/12/20 00:30:38;;;;;;;4.88;2.58;;;;;;;;;;4996547;28;20204;-73
2022/12/20 00:33:03;;;;;;;4.95;2.45;;;;;;;;;;4996010;28;20222;-72
2022/12/20 00:35:28;;;;;;;4.43;2.40;;;;;;;;;;4995796;28;20209;-73
2022/12/20 00:37:54;;;;;;;5.28;2.60;;;;;;;;;;5007059;28;20250;-73
2022/12/20 00:40:19;;;;;;;4.65;2.22;;;;;;;;;;4997229;28;20227;-73
2022/12/20 00:42:44;;;;;;;3.95;2.30;;;;;;;;;;5014874;28;20544;-73
2022/12/20 00:45:09;;;;;;;6.25;2.30;;;;;;;;;;5008856;28;20634;-73
2022/12/20 00:47:35;;;;;;;4.70;2.20;;;;;;;;;;5015818;28;20225;-74
2022/12/20 00:50:00;;;;;;;4.10;2.10;;;;;;;;;;4997102;28;20672;-74
2022/12/20 00:52:25;;;;;;;4.60;2.50;;;;;;;;;;4996061;28;20213;-73
2022/12/20 00:54:50;;;;;;;4.28;2.10;;;;;;;;;;4996059;28;20225;-73
2022/12/20 00:57:16;;;;;;;4.72;2.30;;;;;;;;;;5013293;28;20239;-73
2022/12/20 00:59:41;;;;;;;4.07;1.98;;;;;;;;;;5008263;28;20209;-73
2022/12/20 01:02:06;;;;;;;4.47;2.00;;;;;;;;;;4995251;28;20239;-72
2022/12/20 01:04:31;;;;;;;4.22;2.20;;;;;;;;;;4995182;28;20216;-73
2022/12/20 01:06:57;;;;;;;5.95;2.20;;;;;;;;;;4995748;28;20221;-72
2022/12/20 01:09:22;;;;;;;4.05;2.13;;;;;;;;;;4995171;28;20221;-73
2022/12/20 01:11:47;;;;;;;3.92;2.05;;;;;;;;;;4995201;28;20205;-73
2022/12/20 01:14:13;;;;;;;5.93;2.75;;;;;;;;;;4995248;28;20692;-72
2022/12/20 01:16:39;;;;;;;4.25;2.40;;;;;;;;;;4995309;28;20217;-73
2022/12/20 01:19:04;;;;;;;4.63;2.00;;;;;;;;;;4993651;28;20567;-72
2022/12/20 01:21:30;;;;;;;3.67;2.17;;;;;;;;;;4995722;28;20294;-74
2022/12/20 01:23:55;;;;;;;4.43;1.95;;;;;;;;;;4994664;28;20221;-73
2022/12/20 01:26:21;;;;;;;4.95;2.00;;;;;;;;;;4995076;28;20294;-73
2022/12/20 01:28:46;;;;;;;3.58;1.88;;;;;;;;;;4995441;28;20263;-73
2022/12/20 01:31:13;;;;;;;6.88;1.90;;;;;;;;;;4994228;28;20647;-73
2022/12/20 01:33:38;;;;;;;4.47;2.03;;;;;;;;;;4994954;28;20392;-73
2022/12/20 01:36:04;;;;;;;3.53;1.85;;;;;;;;;;4995002;28;20284;-73
2022/12/20 01:38:30;;;;;;;4.50;1.95;;;;;;;;;;4994945;28;20209;-73
2022/12/20 01:40:56;;;;;;;4.28;1.90;;;;;;;;;;4995147;28;20292;-73
2022/12/20 01:43:21;;;;;;;4.18;2.00;;;;;;;;;;4994757;28;20292;-73
2022/12/20 01:45:46;;;;;;;4.03;1.80;;;;;;;;;;4993117;28;20728;-73
2022/12/20 01:48:13;;;;;;;6.70;1.90;;;;;;;;;;4996087;28;20217;-74
2022/12/20 01:50:38;;;;;;;3.28;1.90;;;;;;;;;;5014644;28;20208;-71
2022/12/20 01:53:04;;;;;;;5.35;1.98;;;;;;;;;;4998685;28;20284;-73
2022/12/20 01:55:29;;;;;;;8.85;2.33;;;;;;;;;;4985483;28;20252;-73
2022/12/20 01:57:55;;;;;;;4.88;2.38;;;;;;;;;;4987723;28;20228;-74
2022/12/20 02:00:21;;;;;;;5.28;2.30;;;;;;;;;;4979103;28;20372;-74
2022/12/20 02:02:46;;;;;;;3.30;1.90;;;;;;;;;;4977700;28;20546;-73
2022/12/20 02:05:13;;;;;;;6.38;2.35;;;;;;;;;;4976513;28;20276;-74
2022/12/20 02:07:38;;;;;;;3.38;1.92;;;;;;;;;;4982752;28;20703;-74
2022/12/20 02:10:04;;;;;;;3.80;2.17;;;;;;;;;;4984410;28;20304;-73
2022/12/20 02:12:33;;;;;;;3.75;2.10;;;;;;;;;;5002742;28;20287;-73
2022/12/20 02:14:58;;;;;;;4.75;2.00;;;;;;;;;;5002268;28;20645;-73
2022/12/20 02:17:28;;;;;;;5.03;2.17;;;;;;;;;;4984784;28;20308;-73
2022/12/20 02:20:08;;;;;;;4.97;2.30;;;;;;;;;;5003820;28;20227;-73
2022/12/20 02:22:40;;;;;;;3.72;1.90;;;;;;;;;;4979997;28;20636;-72
2022/12/20 02:25:11;;;;;;;5.00;2.10;;;;;;;;;;4975929;28;20225;-72
2022/12/20 02:27:40;;;;;;;4.80;2.10;;;;;;;;;;4961935;28;20234;-72
2022/12/20 02:30:07;;;;;;;6.13;2.42;;;;;;;;;;4981292;28;20521;-70
2022/12/20 02:32:35;;;;;;;3.83;2.08;;;;;;;;;;4984595;28;20711;-70
2022/12/20 02:35:00;;;;;;;5.32;2.47;;;;;;;;;;4983974;28;20252;-70
2022/12/20 02:37:25;;;;;;;4.53;2.33;;;;;;;;;;4983920;28;20233;-71
2022/12/20 02:39:51;;;;;;;5.10;2.70;;;;;;;;;;4984585;28;20252;-72
2022/12/20 02:42:17;;;;;;;5.03;2.58;;;;;;;;;;4983196;28;20225;-73
2022/12/20 02:47:30;;;;;;;4.18;2.40;;;;;;;;;;4990158;28;20236;-73
2022/12/20 02:49:56;;;;;;;4.68;2.50;;;;;;;;;;4971151;28;20709;-73
2022/12/20 02:52:21;;;;;;;6.95;2.92;;;;;;;;;;4960680;28;20216;-74
2022/12/20 02:54:47;;;;;;;4.63;2.72;;;;;;;;;;4986524;28;20218;-74
2022/12/20 02:57:15;;;;;;;5.90;2.22;;;;;;;;;;4989544;28;20209;-74
2022/12/20 03:00:00;;;;;;;4.18;2.58;;;;;;;;;;4993088;28;20311;-74
2022/12/20 03:02:25;;;;;;;5.32;2.65;;;;;;;;;;4999241;28;20296;-74
2022/12/20 03:04:50;;;;;;;5.10;2.45;;;;;;;;;;4992442;28;20672;-74
2022/12/20 03:07:16;;;;;;;4.55;2.40;;;;;;;;;;4991582;28;20225;-74
2022/12/20 03:09:42;;;;;;;4.25;2.60;;;;;;;;;;4993078;28;20569;-75
2022/12/20 03:12:07;;;;;;;5.18;2.58;;;;;;;;;;4993173;28;20213;-74
2022/12/20 03:14:33;;;;;;;4.63;2.60;;;;;;;;;;4993570;28;20242;-74
2022/12/20 03:16:58;;;;;;;5.22;2.65;;;;;;;;;;4976002;28;20214;-74
2022/12/20 03:19:23;;;;;;;4.85;2.70;;;;;;;;;;4973886;28;20229;-75
2022/12/20 03:21:49;;;;;;;7.65;2.90;;;;;;;;;;4973901;28;20213;-75
2022/12/20 03:24:14;;;;;;;5.82;2.70;;;;;;;;;;4972699;28;20214;-74
2022/12/20 03:26:40;;;;;;;4.55;2.63;;;;;;;;;;4973911;28;20252;-74
2022/12/20 03:29:05;;;;;;;5.68;2.80;;;;;;;;;;4972810;28;20221;-73
2022/12/20 03:31:30;;;;;;;5.32;3.03;;;;;;;;;;4985425;28;20221;-74
2022/12/20 03:33:55;;;;;;;6.03;2.80;;;;;;;;;;4983523;28;20220;-74
2022/12/20 03:36:22;;;;;;;4.38;2.60;;;;;;;;;;4982848;28;20300;-74
2022/12/20 03:38:48;;;;;;;4.38;2.53;;;;;;;;;;4996385;28;20205;-74
2022/12/20 03:41:13;;;;;;;5.43;2.60;;;;;;;;;;4983765;28;20208;-73
2022/12/20 03:43:39;;;;;;;5.22;2.95;;;;;;;;;;4981763;28;20674;-74
2022/12/20 03:46:04;;;;;;;7.95;2.70;;;;;;;;;;4974625;28;20268;-74
2022/12/20 03:48:29;;;;;;;5.07;2.80;;;;;;;;;;4975570;28;20717;-73
2022/12/20 03:50:54;;;;;;;4.78;2.30;;;;;;;;;;4975979;28;20662;-74
2022/12/20 03:53:20;;;;;;;6.05;2.60;;;;;;;;;;4982297;28;20275;-74
2022/12/20 03:55:45;;;;;;;5.50;3.20;;;;;;;;;;4983661;28;20589;-74
2022/12/20 03:58:10;;;;;;;5.93;2.60;;;;;;;;;;4982642;28;20225;-73
2022/12/20 04:00:35;;;;;;;4.65;2.80;;;;;;;;;;4983724;28;20272;-74
2022/12/20 04:03:01;;;;;;;5.05;3.00;;;;;;;;;;4982529;28;20252;-73
2022/12/20 04:05:26;;;;;;;6.45;2.80;;;;;;;;;;4983234;28;20225;-74
2022/12/20 04:07:51;;;;;;;4.82;2.50;;;;;;;;;;4995451;28;20995;-74
2022/12/20 04:10:16;;;;;;;5.63;2.70;;;;;;;;;;4994208;28;20691;-74
2022/12/20 04:12:42;;;;;;;4.78;2.30;;;;;;;;;;4993958;28;20479;-74
2022/12/20 04:15:07;;;;;;;6.03;2.60;;;;;;;;;;4999201;28;20580;-73
2022/12/20 04:17:32;;;;;;;6.47;2.40;;;;;;;;;;4983225;28;20244;-74
2022/12/20 04:19:58;;;;;;;5.25;2.50;;;;;;;;;;5001661;28;20844;-74
2022/12/20 04:22:23;;;;;;;4.38;2.20;;;;;;;;;;5002292;28;20216;-74
2022/12/20 04:24:48;;;;;;;6.55;2.78;;;;;;;;;;5002542;28;20676;-74
2022/12/20 04:27:13;;;;;;;6.13;2.50;;;;;;;;;;4993311;28;20257;-73
2022/12/20 04:29:38;;;;;;;4.88;2.33;;;;;;;;;;4979653;28;20240;-74
2022/12/20 04:32:04;;;;;;;4.85;2.78;;;;;;;;;;4974680;28;20877;-73
2022/12/20 04:34:29;;;;;;;5.05;2.20;;;;;;;;;;4974451;28;20551;-74
2022/12/20 04:36:54;;;;;;;4.97;2.50;;;;;;;;;;4978654;28;20216;-74
2022/12/20 04:39:19;;;;;;;5.40;2.80;;;;;;;;;;4982650;28;20219;-74
2022/12/20 04:41:45;;;;;;;4.88;2.58;;;;;;;;;;4982635;28;20205;-74
2022/12/20 04:44:10;;;;;;;5.53;2.40;;;;;;;;;;4982456;28;20219;-73
2022/12/20 04:46:35;;;;;;;5.15;2.58;;;;;;;;;;4982908;28;20221;-73
2022/12/20 04:49:01;;;;;;;4.40;2.33;;;;;;;;;;4982468;28;20245;-72
2022/12/20 04:51:26;;;;;;;3.95;2.45;;;;;;;;;;4982097;28;20731;-74
2022/12/20 04:53:51;;;;;;;3.95;2.13;;;;;;;;;;4975290;28;20448;-73
2022/12/20 04:56:17;;;;;;;5.00;2.40;;;;;;;;;;4974482;28;20213;-73
2022/12/20 04:58:43;;;;;;;5.75;2.40;;;;;;;;;;4975610;28;20221;-73
2022/12/20 05:01:08;;;;;;;3.83;2.20;;;;;;;;;;4973881;28;20217;-72
2022/12/20 05:03:33;;;;;;;4.13;2.20;;;;;;;;;;4962733;28;20210;-73
2022/12/20 05:05:59;;;;;;;4.70;2.30;;;;;;;;;;4963461;28;20675;-73
2022/12/20 05:08:24;;;;;;;4.97;2.85;;;;;;;;;;4963827;28;20715;-73
2022/12/20 05:10:50;;;;;;;4.25;1.95;;;;;;;;;;4966877;28;20389;-74
2022/12/20 05:13:15;;;;;;;3.80;2.17;;;;;;;;;;4985214;28;20307;-74
2022/12/20 05:15:40;;;;;;;4.72;2.42;;;;;;;;;;4973324;28;20206;-73
2022/12/20 05:18:06;;;;;;;6.57;2.40;;;;;;;;;;4976419;28;20542;-73
2022/12/20 05:20:31;;;;;;;5.95;2.60;;;;;;;;;;4977505;28;20623;-74
2022/12/20 05:28:26;;;;;;;4.88;2.38;;;;;;;;;;5005143;28;20239;-74
2022/12/20 05:30:51;;;;;;;4.47;2.38;;;;;;;;;;4999533;28;20217;-74
2022/12/20 05:33:16;;;;;;;5.13;2.67;;;;;;;;;;4985222;28;20217;-73
2022/12/20 05:35:41;;;;;;;7.82;2.78;;;;;;;;;;4985265;28;20213;-72
2022/12/20 05:38:06;;;;;;;4.72;2.72;;;;;;;;;;4979799;28;20681;-72
2022/12/20 05:40:32;;;;;;;5.72;2.60;;;;;;;;;;4977852;28;20249;-72
2022/12/20 05:42:57;;;;;;;5.63;2.80;;;;;;;;;;4977675;28;20233;-72
2022/12/20 05:45:22;;;;;;;7.50;2.90;;;;;;;;;;4982094;28;20231;-72
2022/12/20 05:47:48;;;;;;;4.85;2.47;;;;;;;;;;4985852;28;20265;-73
2022/12/20 05:50:13;;;;;;;4.40;2.50;;;;;;;;;;4984990;28;20221;-73
2022/12/20 05:52:38;;;;;;;6.68;2.55;;;;;;;;;;4985458;28;20213;-72
2022/12/20 05:55:04;;;;;;;4.65;2.78;;;;;;;;;;4985179;28;20263;-73
2022/12/20 05:57:30;;;;;;;4.43;2.53;;;;;;;;;;4991033;28;20269;-71
2022/12/20 05:59:55;;;;;;;4.68;2.50;;;;;;;;;;4992367;28;20264;-72
2022/12/20 06:02:21;;;;;;;5.05;2.47;;;;;;;;;;4977234;28;20291;-72
2022/12/20 06:04:46;;;;;;;8.15;3.65;;;;;;;;;;4976723;28;20217;-73
2022/12/20 06:07:12;;;;;;;5.25;3.47;;;;;;;;;;4978742;28;20237;-73
2022/12/20 06:09:37;;;;;;;7.80;3.30;;;;;;;;;;4985691;28;20213;-73
2022/12/20 06:12:02;;;;;;;9.73;6.40;;;;;;;;;;4984289;28;20252;-72
2022/12/20 06:14:28;;;;;;;13.68;8.38;;;;;;;;;;4984765;28;20216;-73
2022/12/20 06:16:53;;;;;;;10.73;4.78;;;;;;;;;;4988251;28;20340;-73
2022/12/20 06:19:19;;;;;;;18.00;13.48;;;;;;;;;;4983499;28;20221;-73
2022/12/20 06:21:44;;;;;;;26.00;14.85;;;;;;;;;;5003014;28;20343;-74
2022/12/20 06:24:10;;;;;;;8.15;5.43;;;;;;;;;;4996467;28;20224;-74
2022/12/20 06:26:35;;;;;;;13.48;5.85;;;;;;;;;;4995021;28;20216;-74
2022/12/20 06:29:02;;;;;;;6.18;3.47;;;;;;;;;;4992050;28;20660;-72
2022/12/20 06:31:27;;;;;;;5.57;2.97;;;;;;;;;;5002055;28;20238;-73
2022/12/20 06:33:53;;;;;;;5.63;2.92;;;;;;;;;;5003161;28;20695;-73
2022/12/20 06:36:18;;;;;;;6.93;3.83;;;;;;;;;;5003630;28;20217;-73
2022/12/20 06:38:44;;;;;;;5.25;2.70;;;;;;;;;;4999031;28;20224;-74
2022/12/20 06:41:09;;;;;;;7.13;2.97;;;;;;;;;;4983673;28;20268;-74
2022/12/20 06:43:34;;;;;;;6.88;3.10;;;;;;;;;;4984542;28;20295;-74
2022/12/20 06:45:59;;;;;;;7.25;3.58;;;;;;;;;;4979706;28;20205;-73
2022/12/20 06:48:25;;;;;;;5.43;2.63;;;;;;;;;;4975338;28;20256;-73
2022/12/20 06:50:50;;;;;;;4.93;2.35;;;;;;;;;;4975982;28;20518;-74
2022/12/20 06:53:15;;;;;;;4.18;2.20;;;;;;;;;;4980816;28;20704;-73
2022/12/20 06:55:41;;;;;;;5.07;2.50;;;;;;;;;;4983621;28;20553;-74
2022/12/20 06:58:06;;;;;;;5.00;2.78;;;;;;;;;;4983654;28;20220;-73
2022/12/20 07:00:31;;;;;;;5.57;2.75;;;;;;;;;;4980758;28;20216;-74
2022/12/20 07:02:56;;;;;;;5.55;2.60;;;;;;;;;;4964630;28;20213;-74
2022/12/20 07:05:22;;;;;;;4.45;2.75;;;;;;;;;;4963796;28;20773;-74
2022/12/20 07:07:47;;;;;;;4.85;2.45;;;;;;;;;;4961823;28;20322;-74
2022/12/20 07:10:12;;;;;;;7.25;2.83;;;;;;;;;;4975761;28;20304;-72
2022/12/20 07:12:38;;;;;;;6.07;2.97;;;;;;;;;;5012400;28;20489;-69
2022/12/20 07:15:03;;;;;;;5.70;2.70;;;;;;;;;;5008431;28;20672;-70
2022/12/20 07:17:29;;;;;;;6.68;2.72;;;;;;;;;;5002221;28;20215;-73
2022/12/20 07:19:54;;;;;;;4.50;2.30;;;;;;;;;;5002176;28;20216;-74
2022/12/20 07:22:20;;;;;;;4.10;2.08;;;;;;;;;;4990498;28;20221;-75
2022/12/20 07:24:46;;;;;;;5.47;2.25;;;;;;;;;;4983623;28;20221;-75
2022/12/20 07:27:11;;;;;;;5.10;2.30;;;;;;;;;;4981976;28;20277;-74
2022/12/20 07:29:39;;;;;;;5.90;2.08;;;;;;;;;;4982191;28;20205;-74
2022/12/20 07:32:05;;;;;;;5.25;2.28;;;;;;;;;;4983294;28;20240;-74
2022/12/20 07:34:30;;;;;;;3.83;2.30;;;;;;;;;;4982079;28;20240;-75
2022/12/20 07:36:55;;;;;;;4.68;2.10;;;;;;;;;;4982326;28;20328;-75
2022/12/20 07:39:21;;;;;;;6.07;2.15;;;;;;;;;;4982980;28;20317;-74
2022/12/20 07:41:46;;;;;;;3.45;2.30;;;;;;;;;;4981926;28;20296;-75
2022/12/20 07:44:11;;;;;;;5.75;2.63;;;;;;;;;;4982478;28;20552;-74
2022/12/20 07:46:37;;;;;;;4.95;2.53;;;;;;;;;;4983018;28;20662;-75
2022/12/20 07:49:02;;;;;;;4.10;2.10;;;;;;;;;;4984932;28;20212;-72
2022/12/20 07:51:30;;;;;;;4.40;2.30;;;;;;;;;;4984092;28;20213;-74
2022/12/20 07:53:58;;;;;;;5.53;2.80;;;;;;;;;;4990910;28;20490;-72
2022/12/20 07:56:23;;;;;;;7.00;3.00;;;;;;;;;;5002259;28;20640;-74
2022/12/20 07:58:48;;;;;;;3.83;2.42;;;;;;;;;;5010726;28;20220;-74
2022/12/20 08:01:14;;;;;;;3.53;2.10;;;;;;;;;;4990722;28;20225;-74
2022/12/20 08:03:41;;;;;;;3.63;1.98;;;;;;;;;;4992410;28;20300;-69
2022/12/20 08:06:06;;;;;;;5.60;2.30;;;;;;;;;;4989870;28;20233;-73
2022/12/20 08:08:32;;;;;;;4.88;2.13;;;;;;;;;;4998533;28;20681;-75
2022/12/20 08:10:58;;;;;;;6.43;2.22;;;;;;;;;;4994214;28;20209;-75
2022/12/20 08:13:23;;;;;;;6.38;2.30;;;;;;;;;;5009878;28;20220;-75
2022/12/20 08:15:48;;;;;;;2.83;1.85;;;;;;;;;;4993685;28;20213;-75
2022/12/20 08:18:15;;;;;;;5.28;1.92;;;;;;;;;;4973995;28;20241;-74
2022/12/20 08:20:40;;;;;;;5.43;2.10;;;;;;;;;;4973243;28;20566;-75
2022/12/20 08:23:05;;;;;;;4.50;2.03;;;;;;;;;;4972768;28;20300;-74
2022/12/20 08:25:30;;;;;;;4.88;2.05;;;;;;;;;;4973106;28;20210;-74
2022/12/20 08:27:56;;;;;;;5.13;2.00;;;;;;;;;;4972382;28;20222;-74
2022/12/20 08:30:21;;;;;;;3.58;1.92;;;;;;;;;;4972893;28;20572;-75
2022/12/20 08:32:47;;;;;;;6.63;2.15;;;;;;;;;;4974327;28;20217;-74
2022/12/20 08:35:12;;;;;;;5.07;1.95;;;;;;;;;;4980599;28;20242;-75
2022/12/20 08:37:37;;;;;;;3.78;1.90;;;;;;;;;;4982037;28;20221;-74
2022/12/20 08:40:03;;;;;;;3.13;2.08;;;;;;;;;;4975455;28;20205;-74
2022/12/20 08:42:28;;;;;;;4.00;1.73;;;;;;;;;;4972691;28;20296;-75
2022/12/20 08:44:53;;;;;;;4.53;1.70;;;;;;;;;;4976530;28;20221;-74
2022/12/20 08:47:19;;;;;;;4.65;2.03;;;;;;;;;;4975295;28;20244;-74
2022/12/20 08:49:44;;;;;;;5.50;2.10;;;;;;;;;;4979186;28;20213;-73
2022/12/20 08:52:09;;;;;;;5.03;1.90;;;;;;;;;;4975878;28;20575;-74
2022/12/20 08:54:35;;;;;;;4.97;1.98;;;;;;;;;;4976006;28;20272;-75
2022/12/20 08:57:00;;;;;;;4.13;1.90;;;;;;;;;;4992806;28;20629;-73
2022/12/20 08:59:25;;;;;;;6.35;1.80;;;;;;;;;;5009208;28;20209;-73
2022/12/20 09:01:52;;;;;;;4.65;1.90;;;;;;;;;;4985945;28;20256;-73
2022/12/20 09:04:17;;;;;;;6.85;2.10;;;;;;;;;;4983678;28;20210;-73
2022/12/20 09:06:43;;;;;;;4.93;2.00;;;;;;;;;;4977724;28;20596;-73
2022/12/20 09:09:08;;;;;;;6.03;2.08;;;;;;;;;;4975226;28;20253;-72
2022/12/20 09:11:34;;;;;;;6.53;2.30;;;;;;;;;;4976138;28;20218;-73
2022/12/20 09:13:59;;;;;;;6.38;1.92;;;;;;;;;;4976117;28;20305;-73
2022/12/20 09:16:25;;;;;;;6.15;2.30;;;;;;;;;;4975290;28;20689;-72
2022/12/20 09:18:51;;;;;;;6.88;2.50;;;;;;;;;;4974912;28;20572;-71
2022/12/20 09:21:16;;;;;;;4.53;2.38;;;;;;;;;;4991128;28;20209;-73
2022/12/20 09:23:42;;;;;;;6.38;2.13;;;;;;;;;;4997314;28;20628;-74
2022/12/20 09:26:09;;;;;;;5.88;2.00;;;;;;;;;;4994646;28;20728;-73
2022/12/20 09:28:34;;;;;;;4.82;2.00;;;;;;;;;;4994008;28;20217;-74
2022/12/20 09:31:00;;;;;;;7.05;2.38;;;;;;;;;;4994932;28;20209;-74
2022/12/20 09:33:25;;;;;;;6.55;2.30;;;;;;;;;;4993584;28;20235;-74
2022/12/20 09:35:51;;;;;;;5.43;2.28;;;;;;;;;;4995088;28;20210;-74
2022/12/20 09:38:16;;;;;;;6.15;2.22;;;;;;;;;;4994147;28;20586;-74
2022/12/20 09:40:48;;;;;;;6.18;2.17;;;;;;;;;;4994919;28;20587;-73
2022/12/20 09:43:13;;;;;;;6.35;2.58;;;;;;;;;;4992854;28;20755;-73
2022/12/20 09:45:39;;;;;;;4.97;2.30;;;;;;;;;;4993959;28;20209;-73
2022/12/20 09:48:05;;;;;;;6.35;2.40;;;;;;;;;;4994706;28;20225;-73
2022/12/20 09:50:36;;;;;;;5.30;2.42;;;;;;;;;;4993222;28;20237;-73
2022/12/20 09:53:02;;;;;;;6.40;2.47;;;;;;;;;;4993189;28;20219;-73
2022/12/20 09:55:32;;;;;;;5.65;2.38;;;;;;;;;;4998348;28;20209;-72
2022/12/20 09:58:16;;;;;;;5.93;2.35;;;;;;;;;;4979606;28;20218;-73
2022/12/20 10:00:44;;;;;;;6.38;2.50;;;;;;;;;;5006214;28;20636;-73
2022/12/20 10:03:11;;;;;;;3.72;2.15;;;;;;;;;;5003264;28;20216;-72
2022/12/20 10:05:38;;;;;;;4.47;2.20;;;;;;;;;;4992676;28;20225;-73
2022/12/20 10:08:04;;;;;;;4.45;2.00;;;;;;;;;;4992835;28;20225;-72
2022/12/20 10:10:30;;;;;;;5.25;2.30;;;;;;;;;;4994252;28;20217;-73
2022/12/20 10:12:55;;;;;;;4.57;2.20;;;;;;;;;;4987301;28;20209;-73
2022/12/20 10:15:27;;;;;;;4.20;1.90;;;;;;;;;;4977262;28;20205;-74
2022/12/20 10:17:52;;;;;;;4.15;1.90;;;;;;;;;;4973775;28;20218;-74
2022/12/20 10:20:18;;;;;;;6.22;2.00;;;;;;;;;;4974445;28;20619;-73
2022/12/20 10:22:44;;;;;;;4.97;1.98;;;;;;;;;;4975079;28;20286;-73
2022/12/20 10:25:15;;;;;;;4.78;2.08;;;;;;;;;;4974242;28;20214;-73
2022/12/20 10:27:41;;;;;;;4.45;1.70;;;;;;;;;;4974324;28;20580;-74
2022/12/20 10:30:14;;;;;;;5.03;2.10;;;;;;;;;;4973456;28;20225;-73
2022/12/20 10:32:40;;;;;;;4.00;2.10;;;;;;;;;;4972822;28;20224;-74
2022/12/20 10:35:08;;;;;;;4.30;2.15;;;;;;;;;;4974414;28;20681;-72
2022/12/20 10:37:33;;;;;;;5.15;1.95;;;;;;;;;;4976908;28;20607;-75
2022/12/20 10:39:59;;;;;;;5.78;2.28;;;;;;;;;;5009517;28;20572;-73
2022/12/20 10:42:25;;;;;;;7.15;3.25;;;;;;;;;;5012892;28;20212;-74
2022/12/20 10:44:51;;;;;;;7.55;2.75;;;;;;;;;;5013505;28;20204;-74
2022/12/20 10:47:21;;;;;;;6.10;2.50;;;;;;;;;;5012431;28;20220;-74
2022/12/20 10:49:46;;;;;;;6.35;2.95;;;;;;;;;;5004473;28;20213;-74
2022/12/20 10:52:12;;;;;;;7.32;2.75;;;;;;;;;;5003392;28;20630;-74
2022/12/20 10:54:37;;;;;;;5.68;2.90;;;;;;;;;;5012843;28;20212;-74
2022/12/20 10:57:12;;;;;;;5.53;2.83;;;;;;;;;;4995556;28;20206;-74
2022/12/20 10:59:37;;;;;;;4.88;2.70;;;;;;;;;;4995743;28;20232;-74
2022/12/20 11:02:21;;;;;;;7.38;2.50;;;;;;;;;;4991755;28;20271;-73
2022/12/20 11:04:55;;;;;;;6.68;2.47;;;;;;;;;;4986795;28;20214;-74
2022/12/20 11:07:22;;;;;;;5.97;2.75;;;;;;;;;;4972781;28;20284;-74
2022/12/20 11:09:51;;;;;;;4.20;2.47;;;;;;;;;;5002588;28;20236;-74
2022/12/20 11:12:16;;;;;;;6.18;2.75;;;;;;;;;;5012268;28;20236;-73
2022/12/20 11:14:43;;;;;;;7.50;3.53;;;;;;;;;;5010921;28;20232;-74
2022/12/20 11:17:12;;;;;;;9.70;3.25;;;;;;;;;;4994519;28;20235;-74
2022/12/20 11:19:45;;;;;;;6.50;2.50;;;;;;;;;;4993431;28;20673;-74
2022/12/20 11:22:10;;;;;;;7.25;2.53;;;;;;;;;;4992285;28;20219;-74
2022/12/20 11:24:37;;;;;;;6.82;2.35;;;;;;;;;;4993280;28;20210;-74
2022/12/20 11:27:03;;;;;;;6.72;2.45;;;;;;;;;;4992130;28;20696;-74
2022/12/20 11:29:28;;;;;;;3.70;2.42;;;;;;;;;;4992926;28;20219;-75
2022/12/20 11:32:02;;;;;;;5.80;2.40;;;;;;;;;;4993168;28;20244;-75
2022/12/20 11:34:27;;;;;;;5.50;2.63;;;;;;;;;;4973464;28;20640;-75
2022/12/20 11:36:57;;;;;;;5.38;2.45;;;;;;;;;;4973301;28;20299;-75
2022/12/20 11:39:31;;;;;;;5.82;2.30;;;;;;;;;;4981957;28;20259;-74
2022/12/20 11:41:58;;;;;;;7.40;2.30;;;;;;;;;;4990181;28;20204;-74
2022/12/20 11:44:30;;;;;;;4.90;2.30;;;;;;;;;;4990855;28;20300;-74
2022/12/20 11:47:07;;;;;;;5.72;2.60;;;;;;;;;;4993058;28;20232;-74
2022/12/20 11:49:43;;;;;;;4.90;2.50;;;;;;;;;;4992603;28;20209;-71
2022/12/20 11:52:17;;;;;;;3.80;2.47;;;;;;;;;;4988803;28;20222;-72
2022/12/20 11:54:43;;;;;;;4.38;2.20;;;;;;;;;;4977167;28;20264;-73
2022/12/20 11:57:17;;;;;;;8.27;3.22;;;;;;;;;;4988396;28;20224;-72
2022/12/20 11:59:44;;;;;;;7.65;2.95;;;;;;;;;;4991288;28;20267;-73
2022/12/20 12:02:11;;;;;;;5.57;2.97;;;;;;;;;;5002340;28;20220;-72
2022/12/20 12:04:39;;;;;;;5.35;2.53;;;;;;;;;;5002541;28;20211;-72
2022/12/20 12:07:13;;;;;;;5.78;3.00;;;;;;;;;;5002422;28;20319;-71
2022/12/20 12:09:39;;;;;;;6.57;2.58;;;;;;;;;;5002762;28;20207;-72
2022/12/20 12:12:21;;;;;;;5.57;2.80;;;;;;;;;;5001881;28;20295;-72
2022/12/20 12:14:52;;;;;;;5.43;2.70;;;;;;;;;;5012388;28;20212;-72
2022/12/20 12:17:22;;;;;;;5.82;2.63;;;;;;;;;;4993167;28;20235;-72
2022/12/20 12:19:48;;;;;;;5.07;2.42;;;;;;;;;;4996156;28;20268;-72
2022/12/20 12:22:16;;;;;;;5.68;2.70;;;;;;;;;;4996205;28;20263;-72
2022/12/20 12:24:43;;;;;;;5.78;2.20;;;;;;;;;;4995185;28;20591;-72
2022/12/20 12:27:11;;;;;;;5.18;2.33;;;;;;;;;;4995278;28;20323;-72
2022/12/20 12:29:36;;;;;;;4.43;2.58;;;;;;;;;;4995342;28;20290;-72
2022/12/20 12:32:03;;;;;;;5.38;2.40;;;;;;;;;;5000340;28;20739;-71
2022/12/20 12:34:35;;;;;;;5.97;2.50;;;;;;;;;;5012025;28;20291;-73
2022/12/20 12:37:05;;;;;;;6.30;2.28;;;;;;;;;;5016040;28;20291;-73
2022/12/20 12:39:36;;;;;;;7.15;2.50;;;;;;;;;;5013612;28;20232;-73
2022/12/20 12:42:01;;;;;;;4.30;2.28;;;;;;;;;;5015351;28;20235;-71
2022/12/20 12:44:34;;;;;;;5.68;2.60;;;;;;;;;;5015800;28;20273;-72
2022/12/20 12:47:00;;;;;;;4.80;2.40;;;;;;;;;;5012077;28;20256;-71
2022/12/20 12:49:26;;;;;;;8.65;2.70;;;;;;;;;;4996124;28;20689;-73
2022/12/20 12:51:52;;;;;;;6.45;2.30;;;;;;;;;;4996060;28;20213;-73
2022/12/20 12:54:20;;;;;;;5.53;2.42;;;;;;;;;;4994993;28;20296;-72
2022/12/20 12:56:46;;;;;;;8.77;2.88;;;;;;;;;;4988105;28;20209;-72
2022/12/20 12:59:11;;;;;;;6.65;2.80;;;;;;;;;;4990509;28;20283;-72
2022/12/20 13:01:46;;;;;;;5.15;2.60;;;;;;;;;;5003309;28;20665;-72
2022/12/20 13:04:18;;;;;;;6.20;2.80;;;;;;;;;;4995712;28;20219;-72
2022/12/20 13:06:52;;;;;;;4.70;2.70;;;;;;;;;;4995555;28;20304;-73
2022/12/20 13:09:19;;;;;;;6.15;2.70;;;;;;;;;;4993419;28;20299;-72
2022/12/20 13:11:44;;;;;;;7.50;2.63;;;;;;;;;;4995525;28;20217;-72
2022/12/20 13:14:16;;;;;;;6.30;2.78;;;;;;;;;;4995289;28;20213;-72
2022/12/20 13:16:41;;;;;;;4.93;2.75;;;;;;;;;;4995790;28;20233;-72
2022/12/20 13:19:11;;;;;;;5.38;2.38;;;;;;;;;;4995132;28;20217;-71
2022/12/20 13:21:36;;;;;;;7.18;3.08;;;;;;;;;;4995539;28;20209;-73
2022/12/20 13:24:34;;;;;;;6.40;2.80;;;;;;;;;;4995330;28;20224;-71
2022/12/20 13:27:00;;;;;;;9.07;3.80;;;;;;;;;;4995078;28;20225;-71
2022/12/20 13:29:27;;;;;;;7.93;3.17;;;;;;;;;;4973458;28;20205;-71
2022/12/20 13:31:52;;;;;;;7.15;3.10;;;;;;;;;;4982870;28;20216;-75
2022/12/20 13:34:34;;;;;;;6.93;3.50;;;;;;;;;;4999938;28;20237;-74
2022/12/20 13:36:59;;;;;;;7.10;3.20;;;;;;;;;;5001578;28;20201;-74
2022/12/20 13:39:27;;;;;;;6.97;3.20;;;;;;;;;;5003192;28;21252;-74
2022/12/20 13:42:05;;;;;;;7.72;4.07;;;;;;;;;;5004043;28;20212;-72
2022/12/20 13:44:33;;;;;;;7.95;3.67;;;;;;;;;;4998287;28;20200;-74
2022/12/20 13:47:05;;;;;;;7.00;3.65;;;;;;;;;;5004884;28;20300;-72
2022/12/20 13:49:33;;;;;;;11.32;6.72;;;;;;;;;;4996464;28;20708;-74
2022/12/20 13:52:22;;;;;;;8.73;5.07;;;;;;;;;;4993414;28;20197;-75
2022/12/20 13:54:48;;;;;;;10.38;5.28;;;;;;;;;;5003436;28;20318;-74
2022/12/20 13:57:15;;;;;;;8.20;4.75;;;;;;;;;;4983191;28;20679;-74
2022/12/20 13:59:43;;;;;;;9.77;4.22;;;;;;;;;;4985322;28;20198;-74
2022/12/20 14:02:09;;;;;;;9.05;5.10;;;;;;;;;;4984110;28;20236;-73
2022/12/20 14:04:39;;;;;;;11.77;6.70;;;;;;;;;;4990220;28;20241;-74
2022/12/20 14:07:05;;;;;;;8.73;5.18;;;;;;;;;;4990752;28;20221;-75
2022/12/20 14:09:31;;;;;;;10.88;5.45;;;;;;;;;;4993722;28;20223;-75
2022/12/20 14:12:04;;;;;;;7.97;4.60;;;;;;;;;;4994251;28;20201;-74
2022/12/20 14:14:29;;;;;;;8.23;4.28;;;;;;;;;;5000311;28;20681;-74
2022/12/20 14:16:55;;;;;;;9.80;6.63;;;;;;;;;;4993141;28;20239;-74
2022/12/20 14:19:20;;;;;;;7.43;4.05;;;;;;;;;;4993538;28;20224;-74
2022/12/20 14:21:45;;;;;;;7.18;4.10;;;;;;;;;;4994397;28;20212;-74
2022/12/20 14:24:14;;;;;;;9.27;4.32;;;;;;;;;;5012744;28;20228;-75
2022/12/20 14:26:43;;;;;;;6.95;4.13;;;;;;;;;;5013713;28;20209;-75
2022/12/20 14:29:14;;;;;;;10.40;4.25;;;;;;;;;;5013050;28;20213;-75
2022/12/20 14:31:40;;;;;;;6.05;3.65;;;;;;;;;;5011999;28;20212;-75
2022/12/20 14:34:09;;;;;;;5.57;4.10;;;;;;;;;;5012328;28;20212;-74
2022/12/20 14:36:35;;;;;;;6.25;4.53;;;;;;;;;;5013638;28;20224;-74
2022/12/20 14:39:09;;;;;;;6.90;3.50;;;;;;;;;;5012480;28;20224;-71
2022/12/20 14:41:34;;;;;;;8.60;4.35;;;;;;;;;;5011545;28;20220;-74
2022/12/20 14:44:01;;;;;;;4.60;3.13;;;;;;;;;;5013420;28;20220;-75
2022/12/20 14:46:27;;;;;;;6.28;3.90;;;;;;;;;;5012542;28;20221;-75
2022/12/20 14:49:08;;;;;;;4.88;3.03;;;;;;;;;;5012281;28;20228;-75